If you wish to contribute or participate in the discussions about articles you are invited to join SKYbrary as a registered user

 Actions

Bintulu Airport

From SKYbrary Wiki

WBGB
Airport
ICAO: WBGB – IATA: BTU
Summary
Name Bintulu Airport
Region Asia and Pacific
Territory Brunei and East Malaysia BN.gif
Location , Sarawak
Serving Bintulu
Elevation 22.555 m
74 ft
74 ft22.555 m
Type medium airport
Coordinates 3° 7' 25.86" N, 113° 1' 13.70" E
Runways
Designator Length Width Surface ROPS
17/35 2745 m9,005.906 ft
45 m147.638 ft
ASP yes/yes


METAR
Observation WBGB 220200Z VRB02KT 9999 SCT014 FEW015CB BKN300 30/26 Q1008
Station Bintulu
Date/Time 22 April 2019 02:00:00
Wind direction °
Wind speed 02 kts
Lowest cloud amount scattered clouds
Temperature 30°C
Dew point 26°C
Humidity 79%
QNH 1008 hPa
Weather condition n/a